createdAt,value
2017-09-02T00:00:04.595Z,13.80
2017-09-02T00:02:32.205Z,13.80
2017-09-02T00:04:59.679Z,13.70
2017-09-02T00:07:27.211Z,13.70
2017-09-02T00:09:54.677Z,13.70
2017-09-02T00:12:22.210Z,13.70
2017-09-02T00:14:49.680Z,13.70
2017-09-02T00:17:17.123Z,13.70
2017-09-02T00:19:44.578Z,13.70
2017-09-02T00:22:12.018Z,13.70
2017-09-02T00:24:39.496Z,13.80
2017-09-02T00:27:06.965Z,13.80
2017-09-02T00:29:34.406Z,13.70
2017-09-02T00:32:01.870Z,13.70
2017-09-02T00:34:29.304Z,13.70
2017-09-02T00:36:56.790Z,13.60
2017-09-02T00:39:24.245Z,13.60
2017-09-02T00:41:51.695Z,13.60
2017-09-02T00:44:19.212Z,13.60
2017-09-02T00:46:46.834Z,13.50
2017-09-02T00:49:14.369Z,13.50
2017-09-02T00:51:41.942Z,13.40
2017-09-02T00:54:09.382Z,13.30
2017-09-02T00:56:36.925Z,13.30
2017-09-02T00:59:04.397Z,13.30
2017-09-02T01:01:31.862Z,13.30
2017-09-02T01:03:59.293Z,13.30
2017-09-02T01:06:26.747Z,13.30
2017-09-02T01:08:54.215Z,13.20
2017-09-02T01:11:21.683Z,13.20
2017-09-02T01:13:49.134Z,13.20
2017-09-02T01:16:16.567Z,13.20
2017-09-02T01:18:44.039Z,13.30
2017-09-02T01:21:11.507Z,13.30
2017-09-02T01:23:38.984Z,13.40
2017-09-02T01:26:06.403Z,13.30
2017-09-02T01:28:33.853Z,13.30
2017-09-02T01:31:01.287Z,13.20
2017-09-02T01:33:28.784Z,13.20
2017-09-02T01:35:56.215Z,13.20
2017-09-02T01:38:23.657Z,13.20
2017-09-02T01:40:51.184Z,13.10
2017-09-02T01:43:18.619Z,13.10
2017-09-02T01:45:46.051Z,13.10
2017-09-02T01:48:14.263Z,13.00
2017-09-02T01:50:41.690Z,12.90
2017-09-02T01:53:09.175Z,13.10
2017-09-02T01:55:36.643Z,13.10
2017-09-02T01:58:04.107Z,13.10
2017-09-02T02:00:31.566Z,13.10
2017-09-02T02:02:59.022Z,13.00
2017-09-02T02:05:26.586Z,13.00
2017-09-02T02:07:54.047Z,13.00
2017-09-02T02:10:21.563Z,12.90
2017-09-02T02:12:49.002Z,12.80
2017-09-02T02:15:16.495Z,12.80
2017-09-02T02:17:43.967Z,12.70
2017-09-02T02:20:11.406Z,12.70
2017-09-02T02:22:38.834Z,12.70
2017-09-02T02:25:06.321Z,12.70
2017-09-02T02:27:33.764Z,12.70
2017-09-02T02:30:01.229Z,12.70
2017-09-02T02:32:28.695Z,12.60
2017-09-02T02:34:56.158Z,12.60
2017-09-02T02:37:23.611Z,12.60
2017-09-02T02:39:51.046Z,12.60
2017-09-02T02:42:18.603Z,12.50
2017-09-02T02:44:46.050Z,12.50
2017-09-02T02:47:13.542Z,12.50
2017-09-02T02:49:40.979Z,12.50
2017-09-02T02:52:08.416Z,12.50
2017-09-02T02:54:35.854Z,12.50
2017-09-02T02:57:03.355Z,12.60
2017-09-02T02:59:30.787Z,12.60
2017-09-02T03:01:58.250Z,12.60
2017-09-02T03:04:25.726Z,12.60
2017-09-02T03:06:53.167Z,12.70
2017-09-02T03:09:20.675Z,12.70
2017-09-02T03:11:48.106Z,12.60
2017-09-02T03:14:15.539Z,12.50
2017-09-02T03:16:42.987Z,12.50
2017-09-02T03:19:10.470Z,12.50
2017-09-02T03:21:37.934Z,12.50
2017-09-02T03:24:05.395Z,12.40
2017-09-02T03:26:32.855Z,12.40
2017-09-02T03:29:00.306Z,12.40
2017-09-02T03:31:27.847Z,12.40
2017-09-02T03:33:55.322Z,12.50
2017-09-02T03:36:22.772Z,12.40
2017-09-02T03:38:50.306Z,12.40
2017-09-02T03:41:17.761Z,12.40
2017-09-02T03:43:45.234Z,12.40
2017-09-02T03:46:12.671Z,12.30
2017-09-02T03:48:40.157Z,12.30
2017-09-02T03:51:07.607Z,12.20
2017-09-02T03:53:35.077Z,12.20
2017-09-02T03:56:02.543Z,12.20
2017-09-02T03:58:29.982Z,12.20
2017-09-02T04:00:57.440Z,12.20
2017-09-02T04:03:24.917Z,12.20
2017-09-02T04:05:52.443Z,12.20
2017-09-02T04:08:19.918Z,12.20
2017-09-02T04:10:47.352Z,12.20
2017-09-02T04:13:14.856Z,12.20
2017-09-02T04:15:42.299Z,12.20
2017-09-02T04:18:09.836Z,12.20
2017-09-02T04:20:37.286Z,12.30
2017-09-02T04:23:04.727Z,12.20
2017-09-02T04:25:32.169Z,12.20
2017-09-02T04:27:59.667Z,12.10
2017-09-02T04:30:27.215Z,12.00
2017-09-02T04:32:54.698Z,11.90
2017-09-02T04:35:22.222Z,11.90
2017-09-02T04:37:49.668Z,12.00
2017-09-02T04:40:17.147Z,12.00
2017-09-02T04:42:44.603Z,12.00
2017-09-02T04:45:12.158Z,11.90
2017-09-02T04:47:39.632Z,11.90
2017-09-02T04:50:07.183Z,11.90
2017-09-02T04:52:34.632Z,11.90
2017-09-02T04:55:02.202Z,11.80
2017-09-02T04:57:29.643Z,11.80
2017-09-02T04:59:57.103Z,11.80
2017-09-02T05:02:24.543Z,11.80
2017-09-02T05:04:52.048Z,11.80
2017-09-02T05:07:19.582Z,11.80
2017-09-02T05:09:47.055Z,11.90
2017-09-02T05:12:14.512Z,12.00
2017-09-02T05:14:41.969Z,12.00
2017-09-02T05:17:09.411Z,12.00
2017-09-02T05:19:36.861Z,12.00
2017-09-02T05:22:04.303Z,12.00
2017-09-02T05:24:31.762Z,12.00
2017-09-02T05:26:59.219Z,12.00
2017-09-02T05:29:26.678Z,12.00
2017-09-02T05:31:54.132Z,12.00
2017-09-02T05:34:21.566Z,12.00
2017-09-02T05:36:49.012Z,12.00
2017-09-02T05:39:16.459Z,12.10
2017-09-02T05:41:43.914Z,12.10
2017-09-02T05:44:11.420Z,12.10
2017-09-02T05:46:38.967Z,12.20
2017-09-02T05:49:06.436Z,12.30
2017-09-02T05:51:34.082Z,12.30
2017-09-02T05:54:01.563Z,12.30
2017-09-02T05:56:29.094Z,12.40
2017-09-02T05:58:56.674Z,12.50
2017-09-02T06:01:24.120Z,12.60
2017-09-02T06:03:51.562Z,12.60
2017-09-02T06:06:19.054Z,12.60
2017-09-02T06:08:46.607Z,12.50
2017-09-02T06:11:14.150Z,12.50
2017-09-02T06:13:41.612Z,12.50
2017-09-02T06:16:09.062Z,12.60
2017-09-02T06:18:36.541Z,12.70
2017-09-02T06:21:03.970Z,12.80
2017-09-02T06:23:31.561Z,12.90
2017-09-02T06:25:59.030Z,12.90
2017-09-02T06:28:26.544Z,13.00
2017-09-02T06:30:54.084Z,13.20
2017-09-02T06:33:21.519Z,13.30
2017-09-02T06:35:49.014Z,13.40
2017-09-02T06:38:16.471Z,13.40
2017-09-02T06:40:43.926Z,13.40
2017-09-02T06:43:11.418Z,13.30
2017-09-02T06:45:38.856Z,13.30
2017-09-02T06:48:06.293Z,13.40
2017-09-02T06:50:33.727Z,13.40
2017-09-02T06:53:01.192Z,13.50
2017-09-02T06:56:52.217Z,13.70
2017-09-02T06:59:19.671Z,14.00
2017-09-02T07:01:47.169Z,14.10
2017-09-02T07:04:14.695Z,14.40
2017-09-02T07:06:42.158Z,14.60
2017-09-02T07:09:09.614Z,14.70
2017-09-02T07:11:37.086Z,14.90
2017-09-02T07:14:04.543Z,15.00
2017-09-02T07:16:32.161Z,15.10
2017-09-02T07:18:59.676Z,15.00
2017-09-02T07:21:27.133Z,15.00
2017-09-02T07:23:54.590Z,15.00
2017-09-02T07:26:22.048Z,15.00
2017-09-02T07:28:49.506Z,15.10
2017-09-02T07:31:16.968Z,15.20
2017-09-02T07:33:44.472Z,15.30
2017-09-02T07:36:11.924Z,15.30
2017-09-02T07:38:39.395Z,15.50
2017-09-02T07:41:06.938Z,15.50
2017-09-02T07:43:34.383Z,15.40
2017-09-02T07:46:01.819Z,15.50
2017-09-02T07:48:29.311Z,15.50
2017-09-02T07:50:57.527Z,15.40
2017-09-02T07:53:25.103Z,15.40
2017-09-02T07:55:52.587Z,15.50
2017-09-02T07:58:20.138Z,15.40
2017-09-02T08:00:47.575Z,15.40
2017-09-02T08:03:15.053Z,15.50
2017-09-02T08:05:42.498Z,15.50
2017-09-02T08:08:09.928Z,15.60
2017-09-02T08:10:37.387Z,15.80
2017-09-02T08:13:04.830Z,15.90
2017-09-02T08:15:32.334Z,15.90
2017-09-02T08:17:59.790Z,16.00
2017-09-02T08:20:27.255Z,16.00
2017-09-02T08:22:54.675Z,16.00
2017-09-02T08:25:22.123Z,16.10
2017-09-02T08:27:49.575Z,16.10
2017-09-02T08:30:17.039Z,16.20
2017-09-02T08:32:44.527Z,16.30
2017-09-02T08:35:11.977Z,16.40
2017-09-02T08:37:39.407Z,16.40
2017-09-02T08:40:06.885Z,16.30
2017-09-02T08:42:34.353Z,16.40
2017-09-02T08:45:01.791Z,16.30
2017-09-02T08:47:29.239Z,16.40
2017-09-02T08:49:56.726Z,16.50
2017-09-02T08:52:24.302Z,16.50
2017-09-02T08:54:51.841Z,16.60
2017-09-02T08:57:19.277Z,16.80
2017-09-02T08:59:46.738Z,16.80
2017-09-02T09:02:14.167Z,16.90
2017-09-02T09:04:41.611Z,17.00
2017-09-02T09:07:09.118Z,17.20
2017-09-02T09:09:36.596Z,17.40
2017-09-02T09:12:04.044Z,17.50
2017-09-02T09:14:31.502Z,17.70
2017-09-02T09:16:58.919Z,17.60
2017-09-02T09:19:26.366Z,17.40
2017-09-02T09:21:53.844Z,17.30
2017-09-02T09:24:21.295Z,17.20
2017-09-02T09:26:48.757Z,17.30
2017-09-02T09:29:16.187Z,17.30
2017-09-02T09:31:43.636Z,17.60
2017-09-02T09:34:11.074Z,17.90
2017-09-02T09:36:38.510Z,18.20
2017-09-02T09:39:05.951Z,18.30
2017-09-02T09:41:33.384Z,18.40
2017-09-02T09:44:00.816Z,18.50
2017-09-02T09:46:28.249Z,18.10
2017-09-02T09:48:55.689Z,17.90
2017-09-02T09:51:23.112Z,17.90
2017-09-02T09:53:50.548Z,17.90
2017-09-02T09:56:18.008Z,17.90
2017-09-02T09:58:45.463Z,17.80
2017-09-02T10:01:12.925Z,17.90
2017-09-02T10:03:40.378Z,18.00
2017-09-02T10:06:07.810Z,17.90
2017-09-02T10:08:35.266Z,17.90
2017-09-02T10:11:02.771Z,18.00
2017-09-02T10:13:30.192Z,18.20
2017-09-02T10:15:57.641Z,18.30
2017-09-02T10:18:25.069Z,18.20
2017-09-02T10:20:52.505Z,18.30
2017-09-02T10:23:19.926Z,18.40
2017-09-02T10:25:47.391Z,18.60
2017-09-02T10:28:14.838Z,18.80
2017-09-02T10:30:42.295Z,18.60
2017-09-02T10:33:09.743Z,18.60
2017-09-02T10:35:37.192Z,18.50
2017-09-02T10:38:04.648Z,18.40
2017-09-02T10:40:32.087Z,18.20
2017-09-02T10:42:59.527Z,18.10
2017-09-02T10:45:26.981Z,18.10
2017-09-02T10:47:54.406Z,18.30
2017-09-02T10:50:21.873Z,18.40
2017-09-02T10:52:49.291Z,18.40
2017-09-02T10:55:16.725Z,18.40
2017-09-02T10:57:44.179Z,18.40
2017-09-02T11:00:11.626Z,18.40
2017-09-02T11:02:48.997Z,18.50
2017-09-02T11:05:16.423Z,18.70
2017-09-02T11:07:43.905Z,18.90
2017-09-02T11:10:11.346Z,19.00
2017-09-02T11:12:38.794Z,19.10
2017-09-02T11:15:06.217Z,19.20
2017-09-02T11:17:33.679Z,19.00
2017-09-02T11:20:01.107Z,19.00
2017-09-02T11:22:28.547Z,19.00
2017-09-02T11:24:55.970Z,18.90
2017-09-02T11:27:23.704Z,19.00
2017-09-02T11:29:51.129Z,19.20
2017-09-02T11:32:18.562Z,19.20
2017-09-02T11:34:46.011Z,19.00
2017-09-02T11:37:13.447Z,19.10
2017-09-02T11:39:40.877Z,19.20
2017-09-02T11:42:08.359Z,19.20
2017-09-02T11:44:35.803Z,19.20
2017-09-02T11:47:03.263Z,19.10
2017-09-02T11:49:30.726Z,19.00
2017-09-02T11:51:58.192Z,18.90
2017-09-02T11:54:25.649Z,19.00
2017-09-02T11:56:53.076Z,19.20
2017-09-02T11:59:20.523Z,19.20
2017-09-02T12:01:47.953Z,19.30
2017-09-02T12:04:15.388Z,19.40
2017-09-02T12:06:42.827Z,19.20
2017-09-02T12:09:10.286Z,19.20
2017-09-02T12:11:37.726Z,19.20
2017-09-02T12:14:05.177Z,19.30
2017-09-02T12:16:32.631Z,19.20
2017-09-02T12:19:00.155Z,19.30
2017-09-02T12:21:27.575Z,19.10
2017-09-02T12:23:55.015Z,19.10
2017-09-02T12:26:22.476Z,19.00
2017-09-02T12:28:49.913Z,18.90
2017-09-02T12:31:17.339Z,18.90
2017-09-02T12:33:44.780Z,18.90
2017-09-02T12:36:12.223Z,19.10
2017-09-02T12:38:39.650Z,19.30
2017-09-02T12:41:07.107Z,19.30
2017-09-02T12:43:34.548Z,19.20
2017-09-02T12:46:01.979Z,19.20
2017-09-02T12:48:29.407Z,19.20
2017-09-02T12:50:56.851Z,19.20
2017-09-02T12:53:24.299Z,19.10
2017-09-02T12:55:51.778Z,19.00
2017-09-02T12:58:19.232Z,19.10
2017-09-02T13:00:46.667Z,19.20
2017-09-02T13:06:33.190Z,19.50
2017-09-02T13:09:00.615Z,19.70
2017-09-02T13:11:28.082Z,19.90
2017-09-02T13:13:55.534Z,19.80
2017-09-02T13:16:22.995Z,19.60
2017-09-02T13:18:50.430Z,19.60
2017-09-02T13:21:17.863Z,19.70
2017-09-02T13:23:45.308Z,19.60
2017-09-02T13:29:15.732Z,19.50
2017-09-02T13:31:43.183Z,19.50
2017-09-02T13:34:10.625Z,19.50
2017-09-02T13:36:38.086Z,19.40
2017-09-02T13:39:05.547Z,19.50
2017-09-02T13:41:33.013Z,19.60
2017-09-02T13:44:00.447Z,19.50
2017-09-02T13:46:27.892Z,19.60
2017-09-02T13:48:55.315Z,19.80
2017-09-02T13:51:22.785Z,20.00
2017-09-02T13:53:50.222Z,20.10
2017-09-02T13:56:17.679Z,20.00
2017-09-02T13:58:45.138Z,20.00
2017-09-02T14:01:12.580Z,19.90
2017-09-02T14:03:40.024Z,20.00
2017-09-02T14:06:07.447Z,20.10
2017-09-02T14:08:34.944Z,20.30
2017-09-02T14:11:02.390Z,20.30
2017-09-02T14:13:29.849Z,20.50
2017-09-02T14:15:57.277Z,20.60
2017-09-02T14:18:24.728Z,20.70
2017-09-02T14:20:52.175Z,20.40
2017-09-02T14:23:19.618Z,20.00
2017-09-02T14:25:47.055Z,19.90
2017-09-02T14:28:14.512Z,19.70
2017-09-02T14:30:41.971Z,19.60
2017-09-02T14:33:09.416Z,19.60
2017-09-02T14:35:36.857Z,19.70
2017-09-02T14:38:04.298Z,19.70
2017-09-02T14:40:31.768Z,19.80
2017-09-02T14:42:59.234Z,19.90
2017-09-02T14:45:26.694Z,20.20
2017-09-02T14:47:54.142Z,20.40
2017-09-02T14:50:21.624Z,20.20
2017-09-02T14:52:49.055Z,20.20
2017-09-02T14:55:16.511Z,19.90
2017-09-02T14:57:43.967Z,19.80
2017-09-02T15:00:11.423Z,19.90
2017-09-02T15:05:31.866Z,20.30
2017-09-02T15:07:59.353Z,20.70
2017-09-02T15:10:26.803Z,20.70
2017-09-02T15:12:54.247Z,20.60
2017-09-02T15:15:21.699Z,20.40
2017-09-02T15:17:49.145Z,20.30
2017-09-02T15:20:16.587Z,20.00
2017-09-02T15:22:44.030Z,19.80
2017-09-02T15:25:11.480Z,19.50
2017-09-02T15:27:38.904Z,19.50
2017-09-02T15:30:06.368Z,19.40
2017-09-02T15:32:33.818Z,19.30
2017-09-02T15:35:01.279Z,19.10
2017-09-02T15:37:28.700Z,19.30
2017-09-02T15:39:56.154Z,19.40
2017-09-02T15:42:23.582Z,19.40
2017-09-02T15:44:51.020Z,19.70
2017-09-02T15:47:18.464Z,19.80
2017-09-02T15:49:45.921Z,19.90
2017-09-02T15:52:13.392Z,20.20
2017-09-02T15:54:40.814Z,20.40
2017-09-02T15:57:08.246Z,20.20
2017-09-02T15:59:35.687Z,20.20
2017-09-02T16:02:03.123Z,19.90
2017-09-02T16:04:30.586Z,19.40
2017-09-02T16:06:58.038Z,19.50
2017-09-02T16:09:25.473Z,19.70
2017-09-02T16:11:52.930Z,19.80
2017-09-02T16:14:20.402Z,20.20
2017-09-02T16:16:47.831Z,20.70
2017-09-02T16:19:15.276Z,21.10
2017-09-02T16:21:42.711Z,21.90
2017-09-02T16:24:10.178Z,22.50
2017-09-02T16:26:37.620Z,22.30
2017-09-02T16:29:05.075Z,21.70
2017-09-02T16:31:32.497Z,21.50
2017-09-02T16:33:59.922Z,21.40
2017-09-02T16:36:27.457Z,20.80
2017-09-02T16:38:54.907Z,20.50
2017-09-02T16:41:22.371Z,20.10
2017-09-02T16:43:49.835Z,19.60
2017-09-02T16:46:17.308Z,19.40
2017-09-02T16:48:44.751Z,19.60
2017-09-02T16:51:12.194Z,19.70
2017-09-02T16:53:39.627Z,19.70
2017-09-02T16:56:07.070Z,19.30
2017-09-02T16:58:34.514Z,19.10
2017-09-02T17:01:01.962Z,18.90
2017-09-02T17:03:29.400Z,18.90
2017-09-02T17:05:56.823Z,18.80
2017-09-02T17:08:24.286Z,18.60
2017-09-02T17:10:51.706Z,18.50
2017-09-02T17:13:19.176Z,18.60
2017-09-02T17:15:46.687Z,18.70
2017-09-02T17:18:14.126Z,18.80
2017-09-02T17:20:41.599Z,18.90
2017-09-02T17:23:09.034Z,19.10
2017-09-02T17:25:36.500Z,19.30
2017-09-02T17:28:04.012Z,19.50
2017-09-02T17:30:31.490Z,19.60
2017-09-02T17:32:58.996Z,19.50
2017-09-02T17:35:26.456Z,19.50
2017-09-02T17:37:53.934Z,19.40
2017-09-02T17:40:21.386Z,19.30
2017-09-02T17:42:48.847Z,19.00
2017-09-02T17:45:16.302Z,18.70
2017-09-02T17:47:43.796Z,18.40
2017-09-02T17:50:11.270Z,18.20
2017-09-02T17:52:38.774Z,18.00
2017-09-02T17:55:06.211Z,17.80
2017-09-02T17:57:38.580Z,17.80
2017-09-02T18:00:06.023Z,17.70
2017-09-02T18:02:33.466Z,17.70
2017-09-02T18:05:00.891Z,17.60
2017-09-02T18:07:28.329Z,17.50
2017-09-02T18:09:55.762Z,17.30
2017-09-02T18:12:23.203Z,17.10
2017-09-02T18:14:50.649Z,17.00
2017-09-02T18:17:18.067Z,16.90
2017-09-02T18:19:45.513Z,16.90
2017-09-02T18:22:12.975Z,16.80
2017-09-02T18:24:40.415Z,16.90
2017-09-02T18:27:07.886Z,16.90
2017-09-02T18:29:35.321Z,16.90
2017-09-02T18:32:02.774Z,16.90
2017-09-02T18:34:30.216Z,16.90
2017-09-02T18:36:57.635Z,16.80
2017-09-02T18:39:25.087Z,16.70
2017-09-02T18:41:52.531Z,16.70
2017-09-02T18:44:19.968Z,16.60
2017-09-02T18:46:47.426Z,16.50
2017-09-02T18:49:14.859Z,16.40
2017-09-02T18:51:42.290Z,16.30
2017-09-02T18:54:09.750Z,16.30
2017-09-02T18:56:37.979Z,16.20
2017-09-02T18:59:05.434Z,16.20
2017-09-02T19:01:33.778Z,16.20
2017-09-02T19:04:01.230Z,16.20
2017-09-02T19:06:28.659Z,16.30
2017-09-02T19:08:56.094Z,16.30
2017-09-02T19:11:23.531Z,16.30
2017-09-02T19:13:50.963Z,16.20
2017-09-02T19:16:18.428Z,16.10
2017-09-02T19:18:45.891Z,16.00
2017-09-02T19:21:13.335Z,15.90
2017-09-02T19:23:40.786Z,15.90
2017-09-02T19:26:08.230Z,15.80
2017-09-02T19:28:35.648Z,15.90
2017-09-02T19:31:03.111Z,15.90
2017-09-02T19:33:30.547Z,15.80
2017-09-02T19:35:58.038Z,15.80
2017-09-02T19:38:25.475Z,15.70
2017-09-02T19:40:52.906Z,15.80
2017-09-02T19:43:20.351Z,15.90
2017-09-02T19:45:47.808Z,15.80
2017-09-02T19:48:15.243Z,15.70
2017-09-02T19:50:42.686Z,15.70
2017-09-02T19:53:10.158Z,15.60
2017-09-02T19:55:37.605Z,14.00
2017-09-02T19:58:05.073Z,15.40
2017-09-02T20:00:32.519Z,15.40
2017-09-02T20:02:59.941Z,15.40
2017-09-02T20:05:27.387Z,15.40
2017-09-02T20:07:54.820Z,15.50
2017-09-02T20:10:22.261Z,15.50
2017-09-02T20:12:49.732Z,15.60
2017-09-02T20:15:17.174Z,15.50
2017-09-02T20:17:44.613Z,15.40
2017-09-02T20:20:12.044Z,15.30
2017-09-02T20:22:39.481Z,15.20
2017-09-02T20:25:06.942Z,15.10
2017-09-02T20:27:34.375Z,15.10
2017-09-02T20:30:01.810Z,15.00
2017-09-02T20:32:29.263Z,15.10
2017-09-02T20:34:56.714Z,15.20
2017-09-02T20:37:24.151Z,15.40
2017-09-02T20:39:51.654Z,15.50
2017-09-02T20:42:19.094Z,15.50
2017-09-02T20:44:46.536Z,15.40
2017-09-02T20:47:13.988Z,15.40
2017-09-02T20:49:41.482Z,15.40
2017-09-02T20:52:08.921Z,15.40
2017-09-02T20:54:36.368Z,15.40
2017-09-02T20:57:03.821Z,15.40
2017-09-02T20:59:31.278Z,15.30
2017-09-02T21:01:58.739Z,15.20
2017-09-02T21:04:26.202Z,15.20
2017-09-02T21:06:53.642Z,15.20
2017-09-02T21:09:21.113Z,15.10
2017-09-02T21:11:48.570Z,15.10
2017-09-02T21:14:16.015Z,15.20
2017-09-02T21:16:43.451Z,15.10
2017-09-02T21:19:10.921Z,14.90
2017-09-02T21:21:38.388Z,14.80
2017-09-02T21:24:05.851Z,14.80
2017-09-02T21:26:33.287Z,14.90
2017-09-02T21:29:00.754Z,14.90
2017-09-02T21:31:28.173Z,14.80
2017-09-02T21:33:55.623Z,14.70
2017-09-02T21:36:23.070Z,14.60
2017-09-02T21:38:50.693Z,14.60
2017-09-02T21:41:18.164Z,14.50
2017-09-02T21:43:45.755Z,14.60
2017-09-02T21:46:13.187Z,14.60
2017-09-02T21:48:40.639Z,14.50
2017-09-02T21:51:08.063Z,14.50
2017-09-02T21:53:35.534Z,14.40
2017-09-02T21:56:03.052Z,14.40
2017-09-02T21:58:30.562Z,14.30
2017-09-02T22:00:58.033Z,14.30
2017-09-02T22:03:25.655Z,14.30
2017-09-02T22:05:53.148Z,14.30
2017-09-02T22:08:20.610Z,14.20
2017-09-02T22:10:48.145Z,14.20
2017-09-02T22:13:15.717Z,14.20
2017-09-02T22:15:43.168Z,14.10
2017-09-02T22:18:10.604Z,14.10
2017-09-02T22:20:38.048Z,14.10
2017-09-02T22:23:05.507Z,14.20
2017-09-02T22:25:32.982Z,14.20
2017-09-02T22:28:00.399Z,14.10
2017-09-02T22:30:27.835Z,14.10
2017-09-02T22:32:55.294Z,14.10
2017-09-02T22:35:22.737Z,14.00
2017-09-02T22:37:50.207Z,14.00
2017-09-02T22:40:17.648Z,14.00
2017-09-02T22:42:45.083Z,14.00
2017-09-02T22:45:12.539Z,14.00
2017-09-02T22:47:39.981Z,14.00
2017-09-02T22:50:07.439Z,14.00
2017-09-02T22:52:34.878Z,14.10
2017-09-02T22:55:02.342Z,14.10
2017-09-02T22:57:29.779Z,14.00
2017-09-02T22:59:57.207Z,13.90
2017-09-02T23:02:24.657Z,13.80
2017-09-02T23:04:52.086Z,13.90
2017-09-02T23:07:19.527Z,13.90
2017-09-02T23:09:46.963Z,13.80
2017-09-02T23:12:14.399Z,13.70
2017-09-02T23:14:41.839Z,13.70
2017-09-02T23:17:09.295Z,13.50
2017-09-02T23:19:36.759Z,13.50
2017-09-02T23:22:04.199Z,13.50
2017-09-02T23:24:31.644Z,13.50
2017-09-02T23:26:59.107Z,13.40
2017-09-02T23:29:26.559Z,13.40
2017-09-02T23:31:54.022Z,13.40
2017-09-02T23:34:21.478Z,13.40
2017-09-02T23:36:48.941Z,13.40
2017-09-02T23:39:16.407Z,13.40
2017-09-02T23:41:43.854Z,13.40
2017-09-02T23:44:11.317Z,13.40
2017-09-02T23:46:38.753Z,13.40
2017-09-02T23:49:06.193Z,13.30
2017-09-02T23:51:33.638Z,13.30
2017-09-02T23:54:01.074Z,13.20
2017-09-02T23:56:28.510Z,13.20
2017-09-02T23:58:55.948Z,13.20
